Yachats, OR (97498)

12:15 AM PDT on May 27, 2015 (GMT -0700)
Stormwatcher's Retreat | | Change Station
CLOSE
Current Station
Personal Weather Station
Location: Yachats, OR
Elevation: 26 ft
Nearby Weather Stations

Elev 26 ft 44.31 °N, 124.11 °W | Updated 4 minutes ago

Overcast
Overcast
53.4 °F
Feels Like 53.4 °F
N
4.0
Wind Variable Wind from East
Gusts 7.0 mph

Today
High -- | Low -- °F
--% Chance of Precip.
Yesterday
High -- | Low -- °F
Precip. -- in
5:38 AM 8:48 PM
Waxing Gibbous, 65% visible
Pressure 30.10 in
Visibility 10.0 miles
Clouds Overcast 1000 ft
Dew Point 50 °F
Humidity 90%
Rainfall 0.00 in
Snow Depth Not available.
UV 0.0 out of 12
Pollen 7.10 out of 12
Air Quality Not available.
Flu Activity No Activity
METAR KONP 270655Z AUTO 00000KT 10SM OVC010 11/10 A3010 RMK AO2

More Conditions Fewer Conditions

Pressure 30.10 in
Visibility 10.0 miles
Clouds Overcast 1000 ft
Dew Point 50 °F
Humidity 90%
Rainfall 0.00 in
Snow Depth Not available.
UV 0.0 out of 12
Pollen 7.10 out of 12
Air Quality Not available.
Flu Activity No Activity
METAR KONP 270655Z AUTO 00000KT 10SM OVC010 11/10 A3010 RMK AO2

More Conditions Fewer Conditions

10-Day Weather Forecast

Almanac

Astronomy

May. 27, 2015 Rise Set
Actual Time
Civil Twilight
Nautical Twilight
Astronomical Twilight
Moon
Length of Visible Light
Length of Day
Tomorrow will be .
, % of the Moon is Illuminated

Today's Extremes

State Highs State Lows

Community

WunderPhotos

Upload Photos

1,824,632 photos uploaded!

WunderBlogs® & News

Nearby

Air Quality

  Air Quality AQ Index Pollutant
Not available.

Snow Depth

Station Depth Elevation

Earthquake Activity

City Distance Mag. Time & Date
Minimum magnitude displayed is 2.5.

Coastal Water Temperatures

Place Temperature

Stations

Nearby Weather Stations

Station Location Temp. Windchill Dew Point Humidity Wind Precip. Elev Updated Type